sensor_id;sensor_type;location;lat;lon;timestamp;pressure;altitude;pressure_sealevel;temperature;humidity
78014;BME280;67222;50.182;8.734;2023-02-03T05:30:11;101405.28;;;6.26;86.73
78014;BME280;67222;50.182;8.734;2023-02-03T05:32:37;101397.19;;;6.27;86.54
78014;BME280;67222;50.182;8.734;2023-02-03T05:35:02;101400.81;;;6.26;86.83
78014;BME280;67222;50.182;8.734;2023-02-03T05:37:28;101408.59;;;6.28;86.48
78014;BME280;67222;50.182;8.734;2023-02-03T05:39:53;101402.41;;;6.37;85.53
78014;BME280;67222;50.182;8.734;2023-02-03T05:42:38;101405.38;;;6.34;85.34
78014;BME280;67222;50.182;8.734;2023-02-03T05:45:04;101409.06;;;6.41;84.30
78014;BME280;67222;50.182;8.734;2023-02-03T05:47:29;101424.81;;;6.43;84.58
78014;BME280;67222;50.182;8.734;2023-02-03T05:49:54;101426.78;;;6.41;84.30
78014;BME280;67222;50.182;8.734;2023-02-03T05:52:19;101423.13;;;6.42;84.09
78014;BME280;67222;50.182;8.734;2023-02-03T05:54:45;101423.44;;;6.38;84.07
78014;BME280;67222;50.182;8.734;2023-02-03T05:57:10;101423.66;;;6.45;83.39
78014;BME280;67222;50.182;8.734;2023-02-03T05:59:37;101440.78;;;6.51;84.13
78014;BME280;67222;50.182;8.734;2023-02-03T06:02:02;101439.66;;;6.53;82.85
78014;BME280;67222;50.182;8.734;2023-02-03T06:04:28;101431.97;;;6.50;83.55
78014;BME280;67222;50.182;8.734;2023-02-03T06:06:53;101421.38;;;6.50;82.80
78014;BME280;67222;50.182;8.734;2023-02-03T06:09:18;101417.38;;;6.46;83.39
78014;BME280;67222;50.182;8.734;2023-02-03T06:11:43;101424.03;;;6.50;83.18
78014;BME280;67222;50.182;8.734;2023-02-03T06:14:10;101411.50;;;6.52;83.30
78014;BME280;67222;50.182;8.734;2023-02-03T06:16:35;101415.13;;;6.51;83.34
78014;BME280;67222;50.182;8.734;2023-02-03T06:19:00;101403.59;;;6.60;82.63
78014;BME280;67222;50.182;8.734;2023-02-03T06:21:26;101412.00;;;6.56;82.90
78014;BME280;67222;50.182;8.734;2023-02-03T06:23:52;101421.66;;;6.65;82.30
78014;BME280;67222;50.182;8.734;2023-02-03T06:26:18;101402.69;;;6.70;82.55
78014;BME280;67222;50.182;8.734;2023-02-03T06:28:44;101399.78;;;6.63;82.30
78014;BME280;67222;50.182;8.734;2023-02-03T06:31:09;101395.13;;;6.57;82.09
78014;BME280;67222;50.182;8.734;2023-02-03T06:33:35;101406.09;;;6.62;82.12
78014;BME280;67222;50.182;8.734;2023-02-03T06:36:00;101417.81;;;6.59;81.78
78014;BME280;67222;50.182;8.734;2023-02-03T06:38:26;101411.06;;;6.65;81.55
78014;BME280;67222;50.182;8.734;2023-02-03T06:40:51;101408.94;;;6.68;81.32
78014;BME280;67222;50.182;8.734;2023-02-03T06:43:16;101417.28;;;6.74;80.50
78014;BME280;67222;50.182;8.734;2023-02-03T06:45:44;101416.59;;;6.72;80.45
78014;BME280;67222;50.182;8.734;2023-02-03T06:48:10;101419.94;;;6.74;81.32
78014;BME280;67222;50.182;8.734;2023-02-03T06:50:35;101431.69;;;6.71;80.95
78014;BME280;67222;50.182;8.734;2023-02-03T06:53:00;101418.31;;;6.81;80.95
78014;BME280;67222;50.182;8.734;2023-02-03T06:55:26;101422.94;;;6.79;80.17
78014;BME280;67222;50.182;8.734;2023-02-03T06:57:51;101403.25;;;6.81;81.00
78014;BME280;67222;50.182;8.734;2023-02-03T07:00:17;101409.69;;;6.79;80.93
78014;BME280;67222;50.182;8.734;2023-02-03T07:02:43;101400.13;;;6.86;80.71
78014;BME280;67222;50.182;8.734;2023-02-03T07:05:08;101406.25;;;6.86;79.73
78014;BME280;67222;50.182;8.734;2023-02-03T07:07:35;101425.97;;;6.84;80.58
78014;BME280;67222;50.182;8.734;2023-02-03T07:10:01;101432.25;;;6.83;79.88
78014;BME280;67222;50.182;8.734;2023-02-03T07:12:26;101412.69;;;6.84;79.30
78014;BME280;67222;50.182;8.734;2023-02-03T07:14:52;101423.69;;;6.89;79.32
78014;BME280;67222;50.182;8.734;2023-02-03T07:17:17;101433.16;;;6.91;79.84
78014;BME280;67222;50.182;8.734;2023-02-03T07:19:42;101434.19;;;6.98;79.23
78014;BME280;67222;50.182;8.734;2023-02-03T07:22:10;101423.81;;;6.87;79.15
78014;BME280;67222;50.182;8.734;2023-02-03T07:24:36;101416.41;;;6.91;79.04
78014;BME280;67222;50.182;8.734;2023-02-03T07:27:01;101408.31;;;6.92;79.61
78014;BME280;67222;50.182;8.734;2023-02-03T07:29:27;101415.09;;;6.95;79.05
78014;BME280;67222;50.182;8.734;2023-02-03T07:31:52;101414.13;;;6.96;79.34
78014;BME280;67222;50.182;8.734;2023-02-03T07:34:17;101433.19;;;6.99;78.80
78014;BME280;67222;50.182;8.734;2023-02-03T07:36:43;101447.66;;;7.05;79.48
78014;BME280;67222;50.182;8.734;2023-02-03T07:39:08;101451.44;;;7.03;79.04
78014;BME280;67222;50.182;8.734;2023-02-03T07:41:33;101449.31;;;7.06;77.99
78014;BME280;67222;50.182;8.734;2023-02-03T07:43:58;101436.44;;;7.11;78.48
78014;BME280;67222;50.182;8.734;2023-02-03T07:46:24;101447.03;;;7.11;78.71
78014;BME280;67222;50.182;8.734;2023-02-03T07:48:49;101443.25;;;7.14;77.94
78014;BME280;67222;50.182;8.734;2023-02-03T07:51:14;101438.94;;;7.13;78.63
78014;BME280;67222;50.182;8.734;2023-02-03T07:53:40;101454.69;;;7.14;78.20
78014;BME280;67222;50.182;8.734;2023-02-03T07:56:05;101437.47;;;7.18;77.77
78014;BME280;67222;50.182;8.734;2023-02-03T07:58:31;101426.91;;;7.26;77.20
78014;BME280;67222;50.182;8.734;2023-02-03T08:00:57;101447.44;;;7.24;76.98
78014;BME280;67222;50.182;8.734;2023-02-03T08:03:22;101442.13;;;7.24;77.28
78014;BME280;67222;50.182;8.734;2023-02-03T08:05:48;101441.53;;;7.31;78.11
78014;BME280;67222;50.182;8.734;2023-02-03T08:08:14;101430.91;;;7.31;76.26
78014;BME280;67222;50.182;8.734;2023-02-03T08:10:39;101431.06;;;7.29;75.94
78014;BME280;67222;50.182;8.734;2023-02-03T08:13:04;101425.28;;;7.34;76.70
78014;BME280;67222;50.182;8.734;2023-02-03T08:15:30;101421.31;;;7.38;76.99
78014;BME280;67222;50.182;8.734;2023-02-03T08:17:55;101424.28;;;7.35;76.29
78014;BME280;67222;50.182;8.734;2023-02-03T08:20:20;101437.88;;;7.32;76.71
78014;BME280;67222;50.182;8.734;2023-02-03T08:22:46;101434.59;;;7.38;75.67
78014;BME280;67222;50.182;8.734;2023-02-03T08:25:11;101424.97;;;7.37;75.84
78014;BME280;67222;50.182;8.734;2023-02-03T08:27:37;101433.59;;;7.39;76.17
78014;BME280;67222;50.182;8.734;2023-02-03T08:30:03;101429.84;;;7.49;74.72
78014;BME280;67222;50.182;8.734;2023-02-03T08:32:29;101428.38;;;7.55;75.21
78014;BME280;67222;50.182;8.734;2023-02-03T08:34:54;101425.84;;;7.45;75.31
78014;BME280;67222;50.182;8.734;2023-02-03T08:37:21;101440.13;;;7.52;74.70
78014;BME280;67222;50.182;8.734;2023-02-03T08:39:51;101431.06;;;7.63;74.20
78014;BME280;67222;50.182;8.734;2023-02-03T08:42:16;101431.38;;;7.60;74.14
78014;BME280;67222;50.182;8.734;2023-02-03T08:44:41;101423.41;;;7.60;74.24
78014;BME280;67222;50.182;8.734;2023-02-03T08:47:09;101411.16;;;7.67;74.76
78014;BME280;67222;50.182;8.734;2023-02-03T08:49:34;101414.34;;;7.71;73.27
78014;BME280;67222;50.182;8.734;2023-02-03T08:52:03;101404.56;;;7.79;74.75
78014;BME280;67222;50.182;8.734;2023-02-03T08:54:29;101410.69;;;7.80;72.96
78014;BME280;67222;50.182;8.734;2023-02-03T08:56:54;101397.91;;;7.75;74.78
78014;BME280;67222;50.182;8.734;2023-02-03T08:59:20;101388.31;;;7.82;73.66
78014;BME280;67222;50.182;8.734;2023-02-03T09:01:45;101382.31;;;7.80;74.17
78014;BME280;67222;50.182;8.734;2023-02-03T09:04:13;101381.53;;;7.88;73.33
78014;BME280;67222;50.182;8.734;2023-02-03T09:06:39;101395.63;;;7.97;74.31
78014;BME280;67222;50.182;8.734;2023-02-03T09:09:04;101399.50;;;8.02;72.14
78014;BME280;67222;50.182;8.734;2023-02-03T09:11:30;101398.00;;;8.08;72.71
78014;BME280;67222;50.182;8.734;2023-02-03T09:13:55;101404.13;;;8.08;72.04
78014;BME280;67222;50.182;8.734;2023-02-03T09:16:22;101404.63;;;8.12;71.40
78014;BME280;67222;50.182;8.734;2023-02-03T09:18:48;101413.28;;;8.14;71.96
78014;BME280;67222;50.182;8.734;2023-02-03T09:21:14;101413.94;;;8.16;70.17
78014;BME280;67222;50.182;8.734;2023-02-03T09:23:43;101425.41;;;8.25;70.58
78014;BME280;67222;50.182;8.734;2023-02-03T09:26:11;101423.59;;;8.25;70.25
78014;BME280;67222;50.182;8.734;2023-02-03T09:28:37;101407.81;;;8.32;70.45
78014;BME280;67222;50.182;8.734;2023-02-03T09:31:07;101398.84;;;8.33;70.07
78014;BME280;67222;50.182;8.734;2023-02-03T09:33:33;101397.72;;;8.35;70.42
78014;BME280;67222;50.182;8.734;2023-02-03T09:35:59;101398.41;;;8.45;68.87
78014;BME280;67222;50.182;8.734;2023-02-03T09:38:25;101390.94;;;8.57;68.52
78014;BME280;67222;50.182;8.734;2023-02-03T09:46:20;101374.63;;;8.68;67.83
78014;BME280;67222;50.182;8.734;2023-02-03T09:48:49;101371.44;;;8.73;67.40
78014;BME280;67222;50.182;8.734;2023-02-03T09:51:20;101367.13;;;8.80;67.83
78014;BME280;67222;50.182;8.734;2023-02-03T09:53:50;101380.56;;;8.87;66.63
78014;BME280;67222;50.182;8.734;2023-02-03T09:56:31;101355.47;;;8.89;68.41
78014;BME280;67222;50.182;8.734;2023-02-03T09:58:57;101360.13;;;8.95;66.23
78014;BME280;67222;50.182;8.734;2023-02-03T10:01:29;101373.75;;;9.00;67.12
78014;BME280;67222;50.182;8.734;2023-02-03T10:04:19;101373.44;;;8.95;66.47
78014;BME280;67222;50.182;8.734;2023-02-03T10:06:50;101367.41;;;9.01;67.13
78014;BME280;67222;50.182;8.734;2023-02-03T10:15:10;101362.75;;;9.12;66.23
78014;BME280;67222;50.182;8.734;2023-02-03T10:17:53;101368.56;;;9.15;66.05
78014;BME280;67222;50.182;8.734;2023-02-03T10:20:25;101383.69;;;9.15;66.36
78014;BME280;67222;50.182;8.734;2023-02-03T10:22:56;101366.72;;;9.16;65.90
78014;BME280;67222;50.182;8.734;2023-02-03T10:25:33;101376.53;;;9.15;66.34
78014;BME280;67222;50.182;8.734;2023-02-03T10:28:04;101360.09;;;9.12;66.90
78014;BME280;67222;50.182;8.734;2023-02-03T10:30:38;101372.69;;;9.09;66.31
78014;BME280;67222;50.182;8.734;2023-02-03T10:33:14;101386.69;;;9.12;66.07
78014;BME280;67222;50.182;8.734;2023-02-03T10:35:48;101385.84;;;9.19;66.65
78014;BME280;67222;50.182;8.734;2023-02-03T10:38:22;101393.16;;;9.17;66.19
78014;BME280;67222;50.182;8.734;2023-02-03T10:40:49;101389.00;;;9.06;66.10
78014;BME280;67222;50.182;8.734;2023-02-03T10:43:15;101394.38;;;8.98;66.70
78014;BME280;67222;50.182;8.734;2023-02-03T10:45:59;101403.69;;;8.86;67.15
78014;BME280;67222;50.182;8.734;2023-02-03T10:48:24;101394.38;;;8.90;67.41
78014;BME280;67222;50.182;8.734;2023-02-03T10:50:51;101409.50;;;8.90;66.66
78014;BME280;67222;50.182;8.734;2023-02-03T10:53:18;101400.34;;;8.92;67.40
78014;BME280;67222;50.182;8.734;2023-02-03T10:56:08;101376.75;;;8.89;66.65
78014;BME280;67222;50.182;8.734;2023-02-03T10:58:33;101372.59;;;8.87;68.54
78014;BME280;67222;50.182;8.734;2023-02-03T11:01:08;101359.47;;;8.85;67.94
78014;BME280;67222;50.182;8.734;2023-02-03T11:03:34;101361.78;;;8.96;67.69
78014;BME280;67222;50.182;8.734;2023-02-03T11:06:06;101348.78;;;9.01;67.80
78014;BME280;67222;50.182;8.734;2023-02-03T11:08:33;101343.66;;;9.00;68.50
78014;BME280;67222;50.182;8.734;2023-02-03T11:11:04;101332.78;;;9.18;67.69
78014;BME280;67222;50.182;8.734;2023-02-03T11:13:30;101354.25;;;9.08;67.80
78014;BME280;67222;50.182;8.734;2023-02-03T11:16:11;101337.13;;;9.10;67.30
78014;BME280;67222;50.182;8.734;2023-02-03T11:18:54;101336.13;;;9.12;68.78
78014;BME280;67222;50.182;8.734;2023-02-03T11:26:31;101356.16;;;8.83;70.04
78014;BME280;67222;50.182;8.734;2023-02-03T11:29:00;101366.63;;;8.85;70.11
78014;BME280;67222;50.182;8.734;2023-02-03T11:31:32;101372.97;;;8.75;69.94
78014;BME280;67222;50.182;8.734;2023-02-03T11:34:09;101374.09;;;8.73;70.55
78014;BME280;67222;50.182;8.734;2023-02-03T11:36:40;101377.47;;;8.75;70.74
78014;BME280;67222;50.182;8.734;2023-02-03T11:39:13;101390.91;;;8.73;70.53
78014;BME280;67222;50.182;8.734;2023-02-03T11:41:40;101379.25;;;8.83;69.74
78014;BME280;67222;50.182;8.734;2023-02-03T11:44:17;101378.28;;;8.75;70.35
78014;BME280;67222;50.182;8.734;2023-02-03T11:46:44;101382.44;;;8.70;70.66
78014;BME280;67222;50.182;8.734;2023-02-03T11:52:28;101353.03;;;8.55;71.88
78014;BME280;67222;50.182;8.734;2023-02-03T12:00:27;101337.59;;;8.50;71.96
78014;BME280;67222;50.182;8.734;2023-02-03T12:02:59;101338.59;;;8.58;71.53
78014;BME280;67222;50.182;8.734;2023-02-03T12:05:32;101337.91;;;8.64;71.95
78014;BME280;67222;50.182;8.734;2023-02-03T12:16:36;101301.56;;;8.40;73.95
78014;BME280;67222;50.182;8.734;2023-02-03T12:22:00;101291.59;;;8.34;74.24
78014;BME280;67222;50.182;8.734;2023-02-03T12:27:44;101293.41;;;8.01;76.74
78014;BME280;67222;50.182;8.734;2023-02-03T12:30:19;101308.16;;;7.95;77.90
78014;BME280;67222;50.182;8.734;2023-02-03T12:33:15;101317.63;;;7.81;78.63
78014;BME280;67222;50.182;8.734;2023-02-03T12:35:48;101326.88;;;7.69;79.57
78014;BME280;67222;50.182;8.734;2023-02-03T12:38:39;101330.66;;;7.58;80.62
78014;BME280;67222;50.182;8.734;2023-02-03T12:41:19;101344.09;;;7.57;81.86
78014;BME280;67222;50.182;8.734;2023-02-03T12:43:49;101342.94;;;7.51;82.10
78014;BME280;67222;50.182;8.734;2023-02-03T12:46:39;101360.69;;;7.51;82.63
78014;BME280;67222;50.182;8.734;2023-02-03T12:49:39;101352.06;;;7.49;82.28
78014;BME280;67222;50.182;8.734;2023-02-03T12:52:33;101332.81;;;7.47;83.71
78014;BME280;67222;50.182;8.734;2023-02-03T12:55:21;101327.97;;;7.42;83.29
78014;BME280;67222;50.182;8.734;2023-02-03T12:57:56;101321.47;;;7.37;84.09
78014;BME280;67222;50.182;8.734;2023-02-03T13:00:33;101312.03;;;7.42;85.13
78014;BME280;67222;50.182;8.734;2023-02-03T13:06:11;101296.28;;;7.33;85.78
78014;BME280;67222;50.182;8.734;2023-02-03T13:08:46;101300.94;;;7.39;84.49
78014;BME280;67222;50.182;8.734;2023-02-03T13:11:22;101287.50;;;7.40;85.74
78014;BME280;67222;50.182;8.734;2023-02-03T13:13:55;101273.06;;;7.35;86.37
78014;BME280;67222;50.182;8.734;2023-02-03T13:16:28;101287.66;;;7.39;85.85
78014;BME280;67222;50.182;8.734;2023-02-03T13:19:07;101288.16;;;7.34;85.50
78014;BME280;67222;50.182;8.734;2023-02-03T13:21:35;101295.44;;;7.32;86.53
78014;BME280;67222;50.182;8.734;2023-02-03T13:24:02;101281.78;;;7.19;86.56
78014;BME280;67222;50.182;8.734;2023-02-03T13:29:34;101307.50;;;7.18;87.63
78014;BME280;67222;50.182;8.734;2023-02-03T13:32:06;101302.50;;;7.15;87.33
78014;BME280;67222;50.182;8.734;2023-02-03T13:37:37;101305.38;;;7.30;86.52
78014;BME280;67222;50.182;8.734;2023-02-03T13:42:41;101292.28;;;7.28;86.51
78014;BME280;67222;50.182;8.734;2023-02-03T13:45:21;101292.63;;;7.25;86.92
78014;BME280;67222;50.182;8.734;2023-02-03T13:47:51;101287.97;;;7.27;86.51
78014;BME280;67222;50.182;8.734;2023-02-03T13:50:21;101305.22;;;7.32;87.12
78014;BME280;67222;50.182;8.734;2023-02-03T13:53:04;101299.59;;;7.35;86.86
78014;BME280;67222;50.182;8.734;2023-02-03T13:55:38;101287.03;;;7.45;86.93
78014;BME280;67222;50.182;8.734;2023-02-03T13:58:06;101277.22;;;7.37;87.14
78014;BME280;67222;50.182;8.734;2023-02-03T14:03:39;101291.28;;;7.29;87.37
78014;BME280;67222;50.182;8.734;2023-02-03T14:06:04;101290.47;;;7.29;88.23
78014;BME280;67222;50.182;8.734;2023-02-03T14:16:33;101307.56;;;7.43;88.52
78014;BME280;67222;50.182;8.734;2023-02-03T14:18:59;101308.72;;;7.40;87.51
78014;BME280;67222;50.182;8.734;2023-02-03T14:21:24;101318.38;;;7.49;88.17
78014;BME280;67222;50.182;8.734;2023-02-03T14:23:57;101326.50;;;7.48;88.35
78014;BME280;67222;50.182;8.734;2023-02-03T14:26:33;101324.13;;;7.37;88.20
78014;BME280;67222;50.182;8.734;2023-02-03T14:29:00;101330.59;;;7.26;89.38
78014;BME280;67222;50.182;8.734;2023-02-03T14:31:26;101327.78;;;7.36;88.59
78014;BME280;67222;50.182;8.734;2023-02-03T14:34:01;101330.97;;;7.47;89.17
78014;BME280;67222;50.182;8.734;2023-02-03T14:36:32;101320.03;;;7.50;88.21
78014;BME280;67222;50.182;8.734;2023-02-03T14:41:48;101312.75;;;7.44;88.83
78014;BME280;67222;50.182;8.734;2023-02-03T14:44:40;101313.69;;;7.43;88.89
78014;BME280;67222;50.182;8.734;2023-02-03T14:50:08;101305.91;;;7.42;88.81
78014;BME280;67222;50.182;8.734;2023-02-03T14:53:19;101300.25;;;7.37;89.48
78014;BME280;67222;50.182;8.734;2023-02-03T14:56:11;101305.41;;;7.38;89.71
78014;BME280;67222;50.182;8.734;2023-02-03T14:58:51;101327.97;;;7.42;89.26
78014;BME280;67222;50.182;8.734;2023-02-03T15:01:23;101319.88;;;7.44;89.33
78014;BME280;67222;50.182;8.734;2023-02-03T15:04:20;101332.59;;;7.40;89.08
78014;BME280;67222;50.182;8.734;2023-02-03T15:06:48;101336.09;;;7.41;89.30
78014;BME280;67222;50.182;8.734;2023-02-03T15:12:01;101339.78;;;7.56;88.35
78014;BME280;67222;50.182;8.734;2023-02-03T15:14:29;101347.25;;;7.60;88.55
78014;BME280;67222;50.182;8.734;2023-02-03T15:17:01;101345.41;;;7.53;88.39
78014;BME280;67222;50.182;8.734;2023-02-03T15:19:36;101348.25;;;7.51;88.94
78014;BME280;67222;50.182;8.734;2023-02-03T15:22:20;101346.25;;;7.53;88.89
78014;BME280;67222;50.182;8.734;2023-02-03T15:24:46;101363.84;;;7.54;88.87
78014;BME280;67222;50.182;8.734;2023-02-03T15:27:23;101361.84;;;7.56;88.92
78014;BME280;67222;50.182;8.734;2023-02-03T15:29:49;101362.34;;;7.60;88.15
78014;BME280;67222;50.182;8.734;2023-02-03T15:32:22;101366.66;;;7.53;88.80
78014;BME280;67222;50.182;8.734;2023-02-03T15:34:50;101373.63;;;7.54;88.71
78014;BME280;67222;50.182;8.734;2023-02-03T15:37:38;101380.47;;;7.65;89.09
78014;BME280;67222;50.182;8.734;2023-02-03T15:40:18;101379.44;;;7.57;89.40
78014;BME280;67222;50.182;8.734;2023-02-03T15:42:57;101359.69;;;7.60;89.27
78014;BME280;67222;50.182;8.734;2023-02-03T15:45:43;101360.84;;;7.57;89.21
78014;BME280;67222;50.182;8.734;2023-02-03T15:53:16;101372.63;;;7.47;89.66
78014;BME280;67222;50.182;8.734;2023-02-03T15:55:46;101382.56;;;7.45;89.51
78014;BME280;67222;50.182;8.734;2023-02-03T15:58:24;101375.44;;;7.45;89.42
78014;BME280;67222;50.182;8.734;2023-02-03T16:00:56;101375.06;;;7.40;89.80
78014;BME280;67222;50.182;8.734;2023-02-03T16:03:44;101360.84;;;7.49;89.85
78014;BME280;67222;50.182;8.734;2023-02-03T16:06:22;101366.16;;;7.49;89.71
78014;BME280;67222;50.182;8.734;2023-02-03T16:08:49;101363.66;;;7.48;90.37
78014;BME280;67222;50.182;8.734;2023-02-03T16:13:45;101362.31;;;7.44;89.60
78014;BME280;67222;50.182;8.734;2023-02-03T16:16:28;101368.81;;;7.49;90.41
78014;BME280;67222;50.182;8.734;2023-02-03T16:19:00;101378.25;;;7.52;89.46
78014;BME280;67222;50.182;8.734;2023-02-03T16:21:41;101380.75;;;7.53;89.25
78014;BME280;67222;50.182;8.734;2023-02-03T16:24:35;101396.19;;;7.50;90.16
78014;BME280;67222;50.182;8.734;2023-02-03T16:29:52;101395.34;;;7.49;90.04
78014;BME280;67222;50.182;8.734;2023-02-03T16:32:37;101395.03;;;7.52;90.26
78014;BME280;67222;50.182;8.734;2023-02-03T16:35:22;101388.91;;;7.60;89.40
78014;BME280;67222;50.182;8.734;2023-02-03T16:38:09;101403.88;;;7.69;88.67
78014;BME280;67222;50.182;8.734;2023-02-03T16:40:57;101392.59;;;7.67;88.74
78014;BME280;67222;50.182;8.734;2023-02-03T16:43:41;101390.75;;;7.68;88.22
78014;BME280;67222;50.182;8.734;2023-02-03T16:46:24;101392.25;;;7.70;88.11
78014;BME280;67222;50.182;8.734;2023-02-03T16:49:08;101390.28;;;7.72;88.59
78014;BME280;67222;50.182;8.734;2023-02-03T16:51:53;101401.06;;;7.71;88.28
78014;BME280;67222;50.182;8.734;2023-02-03T16:54:18;101382.63;;;7.69;88.30
78014;BME280;67222;50.182;8.734;2023-02-03T16:56:43;101388.63;;;7.79;87.94
78014;BME280;67222;50.182;8.734;2023-02-03T16:59:09;101393.63;;;7.82;87.02
78014;BME280;67222;50.182;8.734;2023-02-03T17:01:35;101393.94;;;7.79;87.10
78014;BME280;67222;50.182;8.734;2023-02-03T17:04:00;101398.63;;;7.85;86.56
78014;BME280;67222;50.182;8.734;2023-02-03T17:06:27;101395.47;;;7.90;85.97
78014;BME280;67222;50.182;8.734;2023-02-03T17:08:53;101391.66;;;7.84;86.12
78014;BME280;67222;50.182;8.734;2023-02-03T17:11:20;101399.28;;;7.87;86.15
78014;BME280;67222;50.182;8.734;2023-02-03T17:13:47;101402.78;;;7.88;85.96
78014;BME280;67222;50.182;8.734;2023-02-03T17:16:21;101407.91;;;7.89;86.54
78014;BME280;67222;50.182;8.734;2023-02-03T17:18:47;101408.59;;;7.92;85.99
78014;BME280;67222;50.182;8.734;2023-02-03T17:21:16;101418.88;;;7.86;86.96
78014;BME280;67222;50.182;8.734;2023-02-03T17:23:41;101428.00;;;7.84;86.44
78014;BME280;67222;50.182;8.734;2023-02-03T17:26:07;101428.50;;;7.87;86.06
78014;BME280;67222;50.182;8.734;2023-02-03T17:28:33;101423.03;;;7.97;85.27
78014;BME280;67222;50.182;8.734;2023-02-03T17:31:01;101432.84;;;8.05;85.47
78014;BME280;67222;50.182;8.734;2023-02-03T17:33:27;101424.56;;;8.08;84.73
78014;BME280;67222;50.182;8.734;2023-02-03T17:36:03;101437.66;;;8.01;85.60
78014;BME280;67222;50.182;8.734;2023-02-03T17:38:30;101442.09;;;7.93;85.17
78014;BME280;67222;50.182;8.734;2023-02-03T17:40:56;101448.25;;;7.93;85.39
78014;BME280;67222;50.182;8.734;2023-02-03T17:43:21;101451.56;;;7.87;86.35
78014;BME280;67222;50.182;8.734;2023-02-03T17:45:47;101447.41;;;7.93;86.77
78014;BME280;67222;50.182;8.734;2023-02-03T17:48:12;101454.56;;;7.92;87.24
78014;BME280;67222;50.182;8.734;2023-02-03T17:50:37;101462.19;;;7.87;86.97
78014;BME280;67222;50.182;8.734;2023-02-03T17:53:05;101486.41;;;7.84;88.15
78014;BME280;67222;50.182;8.734;2023-02-03T17:55:32;101481.13;;;7.92;87.40
78014;BME280;67222;50.182;8.734;2023-02-03T17:57:57;101472.13;;;7.85;86.78
78014;BME280;67222;50.182;8.734;2023-02-03T18:00:22;101474.81;;;7.93;81.12
78014;BME280;67222;50.182;8.734;2023-02-03T18:02:49;101478.34;;;8.02;77.56
78014;BME280;67222;50.182;8.734;2023-02-03T18:05:15;101483.44;;;7.95;77.49
78014;BME280;67222;50.182;8.734;2023-02-03T18:07:40;101491.56;;;7.94;75.35
78014;BME280;67222;50.182;8.734;2023-02-03T18:10:06;101473.13;;;7.84;77.74
78014;BME280;67222;50.182;8.734;2023-02-03T18:12:32;101483.91;;;7.82;77.51
78014;BME280;67222;50.182;8.734;2023-02-03T18:14:58;101477.25;;;7.78;77.11
78014;BME280;67222;50.182;8.734;2023-02-03T18:17:23;101479.44;;;7.83;74.55
78014;BME280;67222;50.182;8.734;2023-02-03T18:19:48;101466.66;;;7.86;73.84
78014;BME280;67222;50.182;8.734;2023-02-03T18:22:13;101474.91;;;7.75;74.45
78014;BME280;67222;50.182;8.734;2023-02-03T18:24:39;101475.78;;;7.84;75.71
78014;BME280;67222;50.182;8.734;2023-02-03T18:27:05;101476.94;;;7.81;74.63
78014;BME280;67222;50.182;8.734;2023-02-03T18:29:30;101469.81;;;7.90;72.38
78014;BME280;67222;50.182;8.734;2023-02-03T18:31:55;101480.22;;;7.75;75.79
78014;BME280;67222;50.182;8.734;2023-02-03T18:34:21;101483.09;;;7.82;72.45
78014;BME280;67222;50.182;8.734;2023-02-03T18:36:46;101479.38;;;7.75;72.45
78014;BME280;67222;50.182;8.734;2023-02-03T18:39:13;101487.25;;;7.84;71.68
78014;BME280;67222;50.182;8.734;2023-02-03T18:41:39;101491.41;;;7.87;70.73
78014;BME280;67222;50.182;8.734;2023-02-03T18:44:04;101506.16;;;7.89;70.04
78014;BME280;67222;50.182;8.734;2023-02-03T18:46:31;101500.84;;;7.81;69.17
78014;BME280;67222;50.182;8.734;2023-02-03T18:48:57;101516.59;;;7.83;68.94
78014;BME280;67222;50.182;8.734;2023-02-03T18:51:23;101515.06;;;7.80;69.86
78014;BME280;67222;50.182;8.734;2023-02-03T18:53:50;101511.09;;;7.76;69.52
78014;BME280;67222;50.182;8.734;2023-02-03T18:58:41;101524.03;;;7.79;68.82
78014;BME280;67222;50.182;8.734;2023-02-03T19:01:06;101536.69;;;7.85;72.28
78014;BME280;67222;50.182;8.734;2023-02-03T19:03:32;101544.25;;;7.72;72.32
78014;BME280;67222;50.182;8.734;2023-02-03T19:05:58;101555.53;;;7.74;74.03
78014;BME280;67222;50.182;8.734;2023-02-03T19:08:24;101555.53;;;7.74;71.63
78014;BME280;67222;50.182;8.734;2023-02-03T19:10:51;101555.91;;;7.79;69.18
78014;BME280;67222;50.182;8.734;2023-02-03T19:13:16;101548.94;;;7.78;69.64
78014;BME280;67222;50.182;8.734;2023-02-03T19:15:43;101553.41;;;7.78;69.74
78014;BME280;67222;50.182;8.734;2023-02-03T19:18:08;101566.16;;;7.74;72.29
78014;BME280;67222;50.182;8.734;2023-02-03T19:20:34;101560.38;;;7.79;68.03
78014;BME280;67222;50.182;8.734;2023-02-03T19:23:00;101568.06;;;7.82;68.30
78014;BME280;67222;50.182;8.734;2023-02-03T19:25:27;101561.06;;;7.81;68.96
78014;BME280;67222;50.182;8.734;2023-02-03T19:27:52;101565.53;;;7.80;71.24
78014;BME280;67222;50.182;8.734;2023-02-03T19:30:18;101566.53;;;7.79;69.54
78014;BME280;67222;50.182;8.734;2023-02-03T19:32:43;101566.84;;;7.76;69.35
78014;BME280;67222;50.182;8.734;2023-02-03T19:35:08;101563.03;;;7.79;70.97
78014;BME280;67222;50.182;8.734;2023-02-03T19:37:33;101574.81;;;7.76;71.25
78014;BME280;67222;50.182;8.734;2023-02-03T19:39:59;101578.78;;;7.72;71.97
78014;BME280;67222;50.182;8.734;2023-02-03T19:42:24;101573.63;;;7.71;69.21
78014;BME280;67222;50.182;8.734;2023-02-03T19:44:49;101572.44;;;7.65;70.08
78014;BME280;67222;50.182;8.734;2023-02-03T19:47:15;101578.94;;;7.71;71.25
78014;BME280;67222;50.182;8.734;2023-02-03T19:49:41;101583.72;;;7.67;71.05
78014;BME280;67222;50.182;8.734;2023-02-03T19:52:06;101593.50;;;7.67;71.63
78014;BME280;67222;50.182;8.734;2023-02-03T19:54:34;101594.81;;;7.63;70.36
78014;BME280;67222;50.182;8.734;2023-02-03T19:56:59;101600.00;;;7.72;70.71
78014;BME280;67222;50.182;8.734;2023-02-03T19:59:25;101613.28;;;7.72;70.80
78014;BME280;67222;50.182;8.734;2023-02-03T20:01:51;101615.63;;;7.75;71.85
78014;BME280;67222;50.182;8.734;2023-02-03T20:04:17;101597.09;;;7.83;70.08
78014;BME280;67222;50.182;8.734;2023-02-03T20:06:42;101601.63;;;7.91;69.75